Queen Of Cowichan — CZ4990 — position and weather

sailwx.info

Track history (hours):
 
Tides and Currents Weather Stations Pressure Air Temp Water Temp Dewpoint Dewpoint Depression Visibility Wind Speed Wind Dir Waves Ship Positions

Queen Of Cowichan

Last reported at 2014-Jul-22 19:33 UTC. Time now 2014-Jul-22 19:53 UTC.
Position N 49°14' W 123°51'.

Length 139 m; draft 5.5 m.

Type: Passenger vessel. MMSI: 316001251.

Date/timePositionNaut miles runAvg speedWind from/ knotsBaromVisibWave heightAir tempDewpointWater temp
2014-Jul-22 19:33N 49°14' W 123°51'4 4.2
2014-Jul-22 18:30N 49°12' W 123°57'0 0.0
2014-Jul-22 17:30N 49°12' W 123°57'0 0.0
2014-Jul-22 16:18N 49°12' W 123°57'0 0.0
2014-Jul-22 15:24N 49°12' W 123°57'0 0.0
2014-Jul-22 14:33N 49°12' W 123°57'0 0.0
2014-Jul-22 13:18N 49°12' W 123°57'0 0.0
2014-Jul-22 12:30N 49°12' W 123°57'0 0.0
2014-Jul-22 11:33N 49°12' W 123°57'0 0.0
2014-Jul-22 10:15N 49°12' W 123°57'0 0.0
2014-Jul-22 09:24N 49°12' W 123°57'0 0.0
2014-Jul-22 08:18N 49°12' W 123°57'0 0.0
2014-Jul-22 07:30N 49°12' W 123°57'0 0.0
2014-Jul-22 06:30N 49°12' W 123°57'0 0.0
2014-Jul-22 05:30N 49°12' W 123°57'0 0.0
2014-Jul-22 04:33N 49°12' W 123°57'2 2.1
2014-Jul-22 03:34N 49°13' W 123°55'2019.9
2014-Jul-22 02:33N 49°19' W 123°26'7 7.1
2014-Jul-22 01:33N 49°23' W 123°16'1716.5
2014-Jul-22 00:33N 49°16' W 123°39'1212.4
2014-Jul-21 23:33N 49°12' W 123°57'1212.2
2014-Jul-21 22:33N 49°17' W 123°40'1716.8
2014-Jul-21 21:33N 49°23' W 123°16'5 5.3
2014-Jul-21 20:33N 49°19' W 123°22'520.0
2014-Jul-21 20:18N 49°17' W 123°29'1520.1
2014-Jul-21 19:33N 49°14' W 123°52'3 2.9
2014-Jul-21 18:34N 49°13' W 123°56'2020.1
2014-Jul-21 17:34N 49°19' W 123°26'8 7.7
2014-Jul-21 16:33N 49°23' W 123°16'1514.7
2014-Jul-21 15:34N 49°16' W 123°36'1414.3
2014-Jul-21 14:33N 49°12' W 123°57'0 0.0
2014-Jul-21 13:32N 49°12' W 123°57'0 0.0
2014-Jul-21 12:29N 49°12' W 123°57'0 0.0
2014-Jul-21 11:29N 49°12' W 123°57'0 0.0
2014-Jul-21 10:29N 49°12' W 123°57'0 0.0
2014-Jul-21 08:29N 49°12' W 123°57'5 5.9
2014-Jul-21 07:33N 49°14' W 123°50'2020.1
2014-Jul-21 06:33N 49°20' W 123°21'1 1.0
2014-Jul-21 05:33N 49°20' W 123°22'2019.7
2014-Jul-21 04:33N 49°14' W 123°51'4 4.0
2014-Jul-21 03:34N 49°12' W 123°56'2020.0
2014-Jul-21 02:34N 49°19' W 123°27'8 8.0
2014-Jul-21 01:33N 49°23' W 123°16'1615.7
2014-Jul-21 00:33N 49°15' W 123°38'1313.1
2014-Jul-20 23:32N 49°12' W 123°57'1010.5
2014-Jul-20 22:33N 49°16' W 123°43'1918.7
2014-Jul-20 21:34N 49°23' W 123°16'4 4.5
2014-Jul-20 20:33N 49°20' W 123°21'2019.9
2014-Jul-20 19:33N 49°14' W 123°50'5 5.1
2014-Jul-20 18:33N 49°12' W 123°57'0 0.0
2014-Jul-20 17:29N 49°12' W 123°57'0 0.0
2014-Jul-20 16:29N 49°12' W 123°57'0 0.0
2014-Jul-20 15:26N 49°12' W 123°57'0 0.0
2014-Jul-20 14:29N 49°12' W 123°57'0 0.0
2014-Jul-20 13:29N 49°12' W 123°57'0 0.0
2014-Jul-20 12:29N 49°12' W 123°57'0 0.0
2014-Jul-20 11:29N 49°12' W 123°57'0 0.0
2014-Jul-20 10:29N 49°12' W 123°57'0 0.0
2014-Jul-20 09:29N 49°12' W 123°57'0 0.0
2014-Jul-20 08:29N 49°12' W 123°57'0 0.0
2014-Jul-20 06:29N 49°12' W 123°57'0 0.0
2014-Jul-20 05:29N 49°12' W 123°57'0 0.0
2014-Jul-20 04:29N 49°12' W 123°57'0 0.0
2014-Jul-20 03:29N 49°12' W 123°57'0 0.0
2014-Jul-20 02:29N 49°12' W 123°57'0 0.0
2014-Jul-20 01:29N 49°12' W 123°57'0 0.0
2014-Jul-19 23:23N 49°12' W 123°57'911.3
2014-Jul-19 22:33N 49°16' W 123°45'1919.1
2014-Jul-19 21:34N 49°23' W 123°17'3 3.1
2014-Jul-19 20:33N 49°20' W 123°21'2019.5
2014-Jul-19 19:33N 49°14' W 123°49'5 5.1
2014-Jul-19 18:34N 49°12' W 123°56'2020.0
2014-Jul-19 17:34N 49°19' W 123°27'8 8.0
2014-Jul-19 16:33N 49°23' W 123°16'1414.4
2014-Jul-19 15:33N 49°17' W 123°37'1514.5
2014-Jul-19 14:33N 49°12' W 123°57'0 0.0
2014-Jul-19 13:33N 49°12' W 123°57'0 0.0
2014-Jul-19 12:20N 49°12' W 123°57'0 0.0
2014-Jul-19 11:32N 49°12' W 123°57'0 0.0
2014-Jul-19 10:32N 49°12' W 123°57'0 0.0
2014-Jul-19 09:32N 49°12' W 123°57'0 0.0
2014-Jul-19 08:32N 49°12' W 123°57'0 0.0
2014-Jul-19 07:26N 49°12' W 123°57'0 0.0
2014-Jul-19 06:32N 49°12' W 123°57'0 0.0
2014-Jul-19 05:32N 49°12' W 123°57'0 0.0
2014-Jul-19 04:26N 49°12' W 123°57'4 4.7
2014-Jul-19 03:33N 49°14' W 123°52'1919.4
2014-Jul-19 02:34N 49°19' W 123°23'6 6.1
2014-Jul-19 01:33N 49°23' W 123°16'1515.1
2014-Jul-19 00:34N 49°16' W 123°37'1413.9
2014-Jul-18 23:33N 49°12' W 123°57'1010.4
2014-Jul-18 22:34N 49°16' W 123°43'1918.7
2014-Jul-18 21:34N 49°23' W 123°16'6 5.8
2014-Jul-18 20:33N 49°19' W 123°23'2019.6
2014-Jul-18 19:33N 49°14' W 123°52'2 2.1
2014-Jul-18 18:33N 49°13' W 123°55'2019.8
2014-Jul-18 17:34N 49°19' W 123°26'7 7.4
2014-Jul-18 16:33N 49°23' W 123°16'1414.3
2014-Jul-18 15:33N 49°16' W 123°36'1514.5
2014-Jul-18 14:33N 49°12' W 123°57'0 0.0
2014-Jul-18 13:21N 49°12' W 123°57'0 0.0
2014-Jul-18 11:24N 49°12' W 123°57'0 0.0
2014-Jul-18 09:24N 49°12' W 123°57'0 0.0
2014-Jul-18 08:21N 49°12' W 123°57'0 0.0
2014-Jul-18 07:24N 49°12' W 123°57'0 0.0
2014-Jul-18 06:33N 49°12' W 123°57'0 0.0
2014-Jul-18 05:30N 49°12' W 123°57'0 0.0
2014-Jul-18 04:21N 49°12' W 123°57'1 1.7
2014-Jul-18 03:34N 49°13' W 123°56'2019.6
2014-Jul-18 02:34N 49°19' W 123°27'8 8.2
2014-Jul-18 01:33N 49°23' W 123°16'1515.3
2014-Jul-18 00:34N 49°16' W 123°37'1413.6
2014-Jul-17 23:33N 49°12' W 123°57'1212.4
2014-Jul-17 22:33N 49°17' W 123°40'1716.7
2014-Jul-17 21:33N 49°23' W 123°16'6 6.2
2014-Jul-17 20:33N 49°19' W 123°24'2020.1
2014-Jul-17 19:33N 49°13' W 123°53'1 1.0
2014-Jul-17 18:34N 49°13' W 123°55'2019.6
2014-Jul-17 17:33N 49°19' W 123°26'7 7.2
2014-Jul-17 16:33N 49°23' W 123°16'1414.4
2014-Jul-17 15:33N 49°16' W 123°36'1514.6
2014-Jul-17 14:33N 49°12' W 123°57'0 0.0
2014-Jul-17 13:17N 49°12' W 123°57'0 0.0
2014-Jul-17 11:29N 49°12' W 123°57'0 0.0
2014-Jul-17 02:29N 49°12' W 123°57'0 0.0
2014-Jul-16 06:29N 49°12' W 123°57'0 0.0
2014-Jul-16 05:32N 49°12' W 123°57'0 0.0
2014-Jul-16 02:14N 49°12' W 123°57'0 0.0
2014-Jul-15 22:23N 49°12' W 123°57'0 0.0
2014-Jul-15 21:29N 49°12' W 123°57'0 0.0
2014-Jul-15 19:29N 49°12' W 123°57'0 0.0
2014-Jul-15 18:17N 49°12' W 123°57'0 0.0
2014-Jul-15 17:23N 49°12' W 123°57'0 0.0
2014-Jul-15 16:23N 49°12' W 123°57'0 0.0
2014-Jul-15 11:23N 49°12' W 123°57'0 0.0
2014-Jul-15 10:11N 49°12' W 123°57'0 0.0
2014-Jul-15 09:29N 49°12' W 123°57'0 0.0
2014-Jul-15 08:29N 49°12' W 123°57'0 0.0
2014-Jul-15 07:14N 49°12' W 123°57'0 0.0
2014-Jul-15 06:29N 49°12' W 123°57'0 0.0
2014-Jul-15 05:08N 49°12' W 123°57'0 0.0
2014-Jul-15 04:23N 49°12' W 123°57'0 0.1
2014-Jul-15 03:33N 49°12' W 123°57'1919.1
2014-Jul-15 02:34N 49°18' W 123°30'10 9.5
2014-Jul-15 01:32N 49°23' W 123°16'1616.6
2014-Jul-15 00:34N 49°16' W 123°39'1310.1
2014-Jul-14 23:17N 49°12' W 123°57'1216.9
2014-Jul-14 22:34N 49°17' W 123°40'1716.6
2014-Jul-14 21:33N 49°23' W 123°16'5 4.8
2014-Jul-14 20:34N 49°19' W 123°21'2019.9
2014-Jul-14 19:34N 49°14' W 123°51'3 3.1
2014-Jul-14 18:34N 49°13' W 123°55'2019.9
2014-Jul-14 17:34N 49°19' W 123°26'8 7.4
2014-Jul-14 16:33N 49°23' W 123°16'1615.9
2014-Jul-14 15:34N 49°15' W 123°38'1313.3
2014-Jul-14 14:34N 49°12' W 123°57'0 0.0
2014-Jul-14 10:31N 49°12' W 123°57'0 0.0
2014-Jul-14 09:22N 49°12' W 123°57'0 0.0
2014-Jul-14 08:28N 49°12' W 123°57'0 0.0
2014-Jul-14 06:25N 49°12' W 123°57'0 0.0
2014-Jul-14 04:04N 49°12' W 123°57'4 8.1
2014-Jul-14 03:34N 49°14' W 123°52'2019.8
2014-Jul-14 02:34N 49°18' W 123°23'6 5.9
2014-Jul-14 01:33N 49°23' W 123°16'1817.7
2014-Jul-14 00:33N 49°16' W 123°41'1111.1
2014-Jul-13 23:32N 49°12' W 123°57'1212.6
2014-Jul-13 22:34N 49°17' W 123°40'10 5.2
2014-Jul-13 20:33N 49°18' W 123°24'2019.8
2014-Jul-13 19:33N 49°13' W 123°54'3 2.9
2014-Jul-13 18:33N 49°12' W 123°57'0 0.0
2014-Jul-13 17:30N 49°12' W 123°57'0 0.0
2014-Jul-13 15:30N 49°12' W 123°57'0 0.0
2014-Jul-13 14:24N 49°12' W 123°57'0 0.0
2014-Jul-13 13:18N 49°12' W 123°57'0 0.0
2014-Jul-13 11:06N 49°12' W 123°57'0 0.0
2014-Jul-13 10:30N 49°12' W 123°57'0 0.0
2014-Jul-13 09:30N 49°12' W 123°57'0 0.0
2014-Jul-13 08:30N 49°12' W 123°57'0 0.0
2014-Jul-13 07:33N 49°12' W 123°57'0 0.0
2014-Jul-13 06:24N 49°12' W 123°57'0 0.0
2014-Jul-12 23:14N 49°12' W 123°57'1116.1
2014-Jul-12 22:34N 49°17' W 123°43'1818.1
2014-Jul-12 21:33N 49°23' W 123°16'6 5.6
2014-Jul-12 20:34N 49°19' W 123°23'2020.1
2014-Jul-12 19:34N 49°13' W 123°52'  
Track history (hours):
 
Tides and Currents Weather Stations Pressure Air Temp Water Temp Dewpoint Dewpoint Depression Visibility Wind Speed Wind Dir Waves Ship Positions

Queen Of Cowichan

Last reported at 2014-Jul-22 19:33 UTC. Time now 2014-Jul-22 19:53 UTC.
Position N 49°14' W 123°51'.

Length 139 m; draft 5.5 m.

Type: Passenger vessel. MMSI: 316001251.

Date/timePositionNaut miles runAvg speedWind from/ knotsBaromVisibWave heightAir tempDewpointWater temp
2014-Jul-22 19:33N 49°14' W 123°51'4 4.2
2014-Jul-22 18:30N 49°12' W 123°57'0 0.0
2014-Jul-22 17:30N 49°12' W 123°57'0 0.0
2014-Jul-22 16:18N 49°12' W 123°57'0 0.0
2014-Jul-22 15:24N 49°12' W 123°57'0 0.0
2014-Jul-22 14:33N 49°12' W 123°57'0 0.0
2014-Jul-22 13:18N 49°12' W 123°57'0 0.0
2014-Jul-22 12:30N 49°12' W 123°57'0 0.0
2014-Jul-22 11:33N 49°12' W 123°57'0 0.0
2014-Jul-22 10:15N 49°12' W 123°57'0 0.0
2014-Jul-22 09:24N 49°12' W 123°57'0 0.0
2014-Jul-22 08:18N 49°12' W 123°57'0 0.0
2014-Jul-22 07:30N 49°12' W 123°57'0 0.0
2014-Jul-22 06:30N 49°12' W 123°57'0 0.0
2014-Jul-22 05:30N 49°12' W 123°57'0 0.0
2014-Jul-22 04:33N 49°12' W 123°57'2 2.1
2014-Jul-22 03:34N 49°13' W 123°55'2019.9
2014-Jul-22 02:33N 49°19' W 123°26'7 7.1
2014-Jul-22 01:33N 49°23' W 123°16'1716.5
2014-Jul-22 00:33N 49°16' W 123°39'1212.4
2014-Jul-21 23:33N 49°12' W 123°57'1212.2
2014-Jul-21 22:33N 49°17' W 123°40'1716.8
2014-Jul-21 21:33N 49°23' W 123°16'5 5.3
2014-Jul-21 20:33N 49°19' W 123°22'520.0
2014-Jul-21 20:18N 49°17' W 123°29'1520.1
2014-Jul-21 19:33N 49°14' W 123°52'3 2.9
2014-Jul-21 18:34N 49°13' W 123°56'2020.1
2014-Jul-21 17:34N 49°19' W 123°26'8 7.7
2014-Jul-21 16:33N 49°23' W 123°16'1514.7
2014-Jul-21 15:34N 49°16' W 123°36'1414.3
2014-Jul-21 14:33N 49°12' W 123°57'0 0.0
2014-Jul-21 13:32N 49°12' W 123°57'0 0.0
2014-Jul-21 12:29N 49°12' W 123°57'0 0.0
2014-Jul-21 11:29N 49°12' W 123°57'0 0.0
2014-Jul-21 10:29N 49°12' W 123°57'0 0.0
2014-Jul-21 08:29N 49°12' W 123°57'5 5.9
2014-Jul-21 07:33N 49°14' W 123°50'2020.1
2014-Jul-21 06:33N 49°20' W 123°21'1 1.0
2014-Jul-21 05:33N 49°20' W 123°22'2019.7
2014-Jul-21 04:33N 49°14' W 123°51'4 4.0
2014-Jul-21 03:34N 49°12' W 123°56'2020.0
2014-Jul-21 02:34N 49°19' W 123°27'8 8.0
2014-Jul-21 01:33N 49°23' W 123°16'1615.7
2014-Jul-21 00:33N 49°15' W 123°38'1313.1
2014-Jul-20 23:32N 49°12' W 123°57'1010.5
2014-Jul-20 22:33N 49°16' W 123°43'1918.7
2014-Jul-20 21:34N 49°23' W 123°16'4 4.5
2014-Jul-20 20:33N 49°20' W 123°21'2019.9
2014-Jul-20 19:33N 49°14' W 123°50'5 5.1
2014-Jul-20 18:33N 49°12' W 123°57'0 0.0
2014-Jul-20 17:29N 49°12' W 123°57'0 0.0
2014-Jul-20 16:29N 49°12' W 123°57'0 0.0
2014-Jul-20 15:26N 49°12' W 123°57'0 0.0
2014-Jul-20 14:29N 49°12' W 123°57'0 0.0
2014-Jul-20 13:29N 49°12' W 123°57'0 0.0
2014-Jul-20 12:29N 49°12' W 123°57'0 0.0
2014-Jul-20 11:29N 49°12' W 123°57'0 0.0
2014-Jul-20 10:29N 49°12' W 123°57'0 0.0
2014-Jul-20 09:29N 49°12' W 123°57'0 0.0
2014-Jul-20 08:29N 49°12' W 123°57'0 0.0
2014-Jul-20 06:29N 49°12' W 123°57'0 0.0
2014-Jul-20 05:29N 49°12' W 123°57'0 0.0
2014-Jul-20 04:29N 49°12' W 123°57'0 0.0
2014-Jul-20 03:29N 49°12' W 123°57'0 0.0
2014-Jul-20 02:29N 49°12' W 123°57'0 0.0
2014-Jul-20 01:29N 49°12' W 123°57'0 0.0
2014-Jul-19 23:23N 49°12' W 123°57'911.3
2014-Jul-19 22:33N 49°16' W 123°45'1919.1
2014-Jul-19 21:34N 49°23' W 123°17'3 3.1
2014-Jul-19 20:33N 49°20' W 123°21'2019.5
2014-Jul-19 19:33N 49°14' W 123°49'5 5.1
2014-Jul-19 18:34N 49°12' W 123°56'2020.0
2014-Jul-19 17:34N 49°19' W 123°27'8 8.0
2014-Jul-19 16:33N 49°23' W 123°16'1414.4
2014-Jul-19 15:33N 49°17' W 123°37'1514.5
2014-Jul-19 14:33N 49°12' W 123°57'0 0.0
2014-Jul-19 13:33N 49°12' W 123°57'0 0.0
2014-Jul-19 12:20N 49°12' W 123°57'0 0.0
2014-Jul-19 11:32N 49°12' W 123°57'0 0.0
2014-Jul-19 10:32N 49°12' W 123°57'0 0.0
2014-Jul-19 09:32N 49°12' W 123°57'0 0.0
2014-Jul-19 08:32N 49°12' W 123°57'0 0.0
2014-Jul-19 07:26N 49°12' W 123°57'0 0.0
2014-Jul-19 06:32N 49°12' W 123°57'0 0.0
2014-Jul-19 05:32N 49°12' W 123°57'0 0.0
2014-Jul-19 04:26N 49°12' W 123°57'4 4.7
2014-Jul-19 03:33N 49°14' W 123°52'1919.4
2014-Jul-19 02:34N 49°19' W 123°23'6 6.1
2014-Jul-19 01:33N 49°23' W 123°16'1515.1
2014-Jul-19 00:34N 49°16' W 123°37'1413.9
2014-Jul-18 23:33N 49°12' W 123°57'1010.4
2014-Jul-18 22:34N 49°16' W 123°43'1918.7
2014-Jul-18 21:34N 49°23' W 123°16'6 5.8
2014-Jul-18 20:33N 49°19' W 123°23'2019.6
2014-Jul-18 19:33N 49°14' W 123°52'2 2.1
2014-Jul-18 18:33N 49°13' W 123°55'2019.8
2014-Jul-18 17:34N 49°19' W 123°26'7 7.4
2014-Jul-18 16:33N 49°23' W 123°16'1414.3
2014-Jul-18 15:33N 49°16' W 123°36'1514.5
2014-Jul-18 14:33N 49°12' W 123°57'0 0.0
2014-Jul-18 13:21N 49°12' W 123°57'0 0.0
2014-Jul-18 11:24N 49°12' W 123°57'0 0.0
2014-Jul-18 09:24N 49°12' W 123°57'0 0.0
2014-Jul-18 08:21N 49°12' W 123°57'0 0.0
2014-Jul-18 07:24N 49°12' W 123°57'0 0.0
2014-Jul-18 06:33N 49°12' W 123°57'0 0.0
2014-Jul-18 05:30N 49°12' W 123°57'0 0.0
2014-Jul-18 04:21N 49°12' W 123°57'1 1.7
2014-Jul-18 03:34N 49°13' W 123°56'2019.6
2014-Jul-18 02:34N 49°19' W 123°27'8 8.2
2014-Jul-18 01:33N 49°23' W 123°16'1515.3
2014-Jul-18 00:34N 49°16' W 123°37'1413.6
2014-Jul-17 23:33N 49°12' W 123°57'1212.4
2014-Jul-17 22:33N 49°17' W 123°40'1716.7
2014-Jul-17 21:33N 49°23' W 123°16'6 6.2
2014-Jul-17 20:33N 49°19' W 123°24'2020.1
2014-Jul-17 19:33N 49°13' W 123°53'1 1.0
2014-Jul-17 18:34N 49°13' W 123°55'2019.6
2014-Jul-17 17:33N 49°19' W 123°26'7 7.2
2014-Jul-17 16:33N 49°23' W 123°16'1414.4
2014-Jul-17 15:33N 49°16' W 123°36'1514.6
2014-Jul-17 14:33N 49°12' W 123°57'0 0.0
2014-Jul-17 13:17N 49°12' W 123°57'0 0.0
2014-Jul-17 11:29N 49°12' W 123°57'0 0.0
2014-Jul-17 02:29N 49°12' W 123°57'0 0.0
2014-Jul-16 06:29N 49°12' W 123°57'0 0.0
2014-Jul-16 05:32N 49°12' W 123°57'0 0.0
2014-Jul-16 02:14N 49°12' W 123°57'0 0.0
2014-Jul-15 22:23N 49°12' W 123°57'0 0.0
2014-Jul-15 21:29N 49°12' W 123°57'0 0.0
2014-Jul-15 19:29N 49°12' W 123°57'0 0.0
2014-Jul-15 18:17N 49°12' W 123°57'0 0.0
2014-Jul-15 17:23N 49°12' W 123°57'0 0.0
2014-Jul-15 16:23N 49°12' W 123°57'0 0.0
2014-Jul-15 11:23N 49°12' W 123°57'0 0.0
2014-Jul-15 10:11N 49°12' W 123°57'0 0.0
2014-Jul-15 09:29N 49°12' W 123°57'0 0.0
2014-Jul-15 08:29N 49°12' W 123°57'0 0.0
2014-Jul-15 07:14N 49°12' W 123°57'0 0.0
2014-Jul-15 06:29N 49°12' W 123°57'0 0.0
2014-Jul-15 05:08N 49°12' W 123°57'0 0.0
2014-Jul-15 04:23N 49°12' W 123°57'0 0.1
2014-Jul-15 03:33N 49°12' W 123°57'1919.1
2014-Jul-15 02:34N 49°18' W 123°30'10 9.5
2014-Jul-15 01:32N 49°23' W 123°16'1616.6
2014-Jul-15 00:34N 49°16' W 123°39'1310.1
2014-Jul-14 23:17N 49°12' W 123°57'1216.9
2014-Jul-14 22:34N 49°17' W 123°40'1716.6
2014-Jul-14 21:33N 49°23' W 123°16'5 4.8
2014-Jul-14 20:34N 49°19' W 123°21'2019.9
2014-Jul-14 19:34N 49°14' W 123°51'3 3.1
2014-Jul-14 18:34N 49°13' W 123°55'2019.9
2014-Jul-14 17:34N 49°19' W 123°26'8 7.4
2014-Jul-14 16:33N 49°23' W 123°16'1615.9
2014-Jul-14 15:34N 49°15' W 123°38'1313.3
2014-Jul-14 14:34N 49°12' W 123°57'0 0.0
2014-Jul-14 10:31N 49°12' W 123°57'0 0.0
2014-Jul-14 09:22N 49°12' W 123°57'0 0.0
2014-Jul-14 08:28N 49°12' W 123°57'0 0.0
2014-Jul-14 06:25N 49°12' W 123°57'0 0.0
2014-Jul-14 04:04N 49°12' W 123°57'4 8.1
2014-Jul-14 03:34N 49°14' W 123°52'2019.8
2014-Jul-14 02:34N 49°18' W 123°23'6 5.9
2014-Jul-14 01:33N 49°23' W 123°16'1817.7
2014-Jul-14 00:33N 49°16' W 123°41'1111.1
2014-Jul-13 23:32N 49°12' W 123°57'1212.6
2014-Jul-13 22:34N 49°17' W 123°40'10 5.2
2014-Jul-13 20:33N 49°18' W 123°24'2019.8
2014-Jul-13 19:33N 49°13' W 123°54'3 2.9
2014-Jul-13 18:33N 49°12' W 123°57'0 0.0
2014-Jul-13 17:30N 49°12' W 123°57'0 0.0
2014-Jul-13 15:30N 49°12' W 123°57'0 0.0
2014-Jul-13 14:24N 49°12' W 123°57'0 0.0
2014-Jul-13 13:18N 49°12' W 123°57'0 0.0
2014-Jul-13 11:06N 49°12' W 123°57'0 0.0
2014-Jul-13 10:30N 49°12' W 123°57'0 0.0
2014-Jul-13 09:30N 49°12' W 123°57'0 0.0
2014-Jul-13 08:30N 49°12' W 123°57'0 0.0
2014-Jul-13 07:33N 49°12' W 123°57'0 0.0
2014-Jul-13 06:24N 49°12' W 123°57'0 0.0
2014-Jul-12 23:14N 49°12' W 123°57'1116.1
2014-Jul-12 22:34N 49°17' W 123°43'1818.1
2014-Jul-12 21:33N 49°23' W 123°16'6 5.6
2014-Jul-12 20:34N 49°19' W 123°23'2020.1
2014-Jul-12 19:34N 49°13' W 123°52'  

Dump ship's entire track history